Time;durP1;ratioP1;P1;durP2;ratioP2;P2;SDS_P1;SDS_P2;PMS_P1;PMS_P2;Temp;Humidity;BMP_temperature;BMP_pressure;BME280_temperature;BME280_humidity;BME280_pressure;Samples;Min_cycle;Max_cycle;Signal;HPM_P1;HPM_P2
2023/04/11 00:02:01;;;;;;;5.68;1.35;;;9.10;99.90;;;;;;5071939;28;20550;-66
2023/04/11 00:04:26;;;;;;;5.65;1.48;;;9.00;99.90;;;;;;5071673;28;20036;-65
2023/04/11 00:06:52;;;;;;;7.45;1.38;;;9.00;99.90;;;;;;5071476;28;20123;-66
2023/04/11 00:09:18;;;;;;;5.20;1.70;;;9.00;99.90;;;;;;5071612;28;20047;-66
2023/04/11 00:11:43;;;;;;;4.07;1.35;;;9.00;99.90;;;;;;5071669;28;20415;-66
2023/04/11 00:14:09;;;;;;;5.60;1.58;;;8.90;99.90;;;;;;5071505;28;20047;-66
2023/04/11 00:16:35;;;;;;;8.50;1.65;;;8.90;99.90;;;;;;5071270;28;20044;-65
2023/04/11 00:19:00;;;;;;;5.43;1.63;;;8.80;99.90;;;;;;5071757;28;20047;-65
2023/04/11 00:21:26;;;;;;;10.13;2.47;;;8.80;99.90;;;;;;5071699;28;20535;-66
2023/04/11 00:23:52;;;;;;;4.88;1.88;;;8.80;99.90;;;;;;5071389;28;20044;-65
2023/04/11 00:26:20;;;;;;;5.97;1.60;;;8.80;99.90;;;;;;5071216;28;20029;-65
2023/04/11 00:28:46;;;;;;;8.05;1.77;;;8.80;99.90;;;;;;5071659;28;20060;-65
2023/04/11 00:31:12;;;;;;;7.45;1.38;;;8.80;99.90;;;;;;5071717;28;20380;-66
2023/04/11 00:33:37;;;;;;;3.97;1.10;;;8.70;99.90;;;;;;5071569;28;20051;-65
2023/04/11 00:36:03;;;;;;;5.35;1.45;;;8.60;99.90;;;;;;5071288;28;20036;-65
2023/04/11 00:38:29;;;;;;;4.88;1.90;;;8.60;99.90;;;;;;5071553;28;20037;-66
2023/04/11 00:40:54;;;;;;;6.00;1.45;;;8.50;99.90;;;;;;5071455;28;20178;-66
2023/04/11 00:43:20;;;;;;;9.32;2.67;;;8.40;99.90;;;;;;5071632;28;20041;-65
2023/04/11 00:45:46;;;;;;;6.50;1.55;;;8.40;99.90;;;;;;5071003;28;20091;-65
2023/04/11 00:48:12;;;;;;;4.90;1.98;;;8.40;99.90;;;;;;5071531;28;20044;-66
2023/04/11 00:50:40;;;;;;;12.88;2.53;;;8.40;99.90;;;;;;5071470;28;20036;-66
2023/04/11 00:53:07;;;;;;;7.93;1.90;;;8.30;99.90;;;;;;5071145;28;20036;-65
2023/04/11 00:55:33;;;;;;;4.95;1.58;;;8.30;99.90;;;;;;5071223;28;20128;-66
2023/04/11 00:57:59;;;;;;;7.20;2.03;;;8.30;99.90;;;;;;5071226;28;20068;-66
2023/04/11 01:00:25;;;;;;;8.73;2.30;;;8.20;99.90;;;;;;5071273;28;20442;-66
2023/04/11 01:02:51;;;;;;;13.60;2.30;;;8.20;99.90;;;;;;5071342;28;20059;-65
2023/04/11 01:05:17;;;;;;;6.80;2.22;;;8.20;99.90;;;;;;5070933;28;20507;-66
2023/04/11 01:07:47;;;;;;;10.55;2.30;;;8.20;99.90;;;;;;5071217;28;20044;-66
2023/04/11 01:10:14;;;;;;;11.20;2.40;;;8.20;99.90;;;;;;5071762;28;20496;-66
2023/04/11 01:12:41;;;;;;;12.32;2.20;;;8.10;99.90;;;;;;5071336;28;20071;-66
2023/04/11 01:15:07;;;;;;;9.13;1.90;;;8.10;99.90;;;;;;5052980;28;20104;-65
2023/04/11 01:17:33;;;;;;;14.60;1.92;;;8.10;99.90;;;;;;5071099;28;20072;-66
2023/04/11 01:19:59;;;;;;;10.52;2.25;;;8.10;99.90;;;;;;5071073;28;20037;-66
2023/04/11 01:22:26;;;;;;;12.30;2.22;;;8.10;99.90;;;;;;5070849;28;20101;-66
2023/04/11 01:24:51;;;;;;;7.47;2.13;;;8.00;99.90;;;;;;5070753;28;20543;-66
2023/04/11 01:27:18;;;;;;;7.15;1.85;;;7.90;99.90;;;;;;5070916;28;20079;-65
2023/04/11 01:29:43;;;;;;;12.88;2.17;;;8.00;99.90;;;;;;5073300;28;20420;-65
2023/04/11 01:32:09;;;;;;;5.60;2.20;;;7.90;99.90;;;;;;5074665;28;20043;-66
2023/04/11 01:34:38;;;;;;;10.90;2.30;;;7.90;99.90;;;;;;5074402;28;20032;-65
2023/04/11 01:37:04;;;;;;;8.13;2.63;;;7.90;99.90;;;;;;5074167;28;20029;-66
2023/04/11 01:39:30;;;;;;;9.55;2.25;;;7.80;99.90;;;;;;5074599;28;20115;-66
2023/04/11 01:41:56;;;;;;;7.78;2.33;;;7.80;99.90;;;;;;5056645;28;20115;-65
2023/04/11 01:44:23;;;;;;;17.25;3.13;;;7.80;99.90;;;;;;5074100;28;20472;-66
2023/04/11 01:46:49;;;;;;;6.28;1.95;;;7.80;99.90;;;;;;5074235;28;20119;-66
2023/04/11 01:49:16;;;;;;;10.00;2.15;;;7.80;99.90;;;;;;5074148;28;20120;-65
2023/04/11 01:51:42;;;;;;;7.63;1.70;;;7.80;99.90;;;;;;5074069;28;20045;-66
2023/04/11 01:54:07;;;;;;;11.30;2.10;;;7.80;99.90;;;;;;5074051;28;20120;-66
2023/04/11 01:56:33;;;;;;;12.20;2.40;;;7.90;99.90;;;;;;5073885;28;20496;-65
2023/04/11 01:58:59;;;;;;;14.13;2.25;;;7.90;99.90;;;;;;5074103;28;20043;-66
2023/04/11 02:01:25;;;;;;;7.32;2.10;;;7.80;99.90;;;;;;5074068;28;20036;-66
2023/04/11 02:03:50;;;;;;;11.82;2.13;;;7.90;99.90;;;;;;5073949;28;20083;-66
2023/04/11 02:06:16;;;;;;;8.70;2.00;;;7.90;99.90;;;;;;5055532;28;20128;-65
2023/04/11 02:08:42;;;;;;;6.05;1.95;;;7.90;99.90;;;;;;5073960;28;20072;-66
2023/04/11 02:11:08;;;;;;;8.05;2.08;;;7.90;99.90;;;;;;5073953;28;20047;-66
2023/04/11 02:13:34;;;;;;;5.85;2.35;;;8.00;99.90;;;;;;5073849;28;20040;-66
2023/04/11 02:16:07;;;;;;;5.95;1.83;;;7.90;99.90;;;;;;5073324;28;20416;-66
2023/04/11 02:18:33;;;;;;;8.27;1.63;;;8.00;99.90;;;;;;5073730;28;20109;-66
2023/04/11 02:20:58;;;;;;;7.25;1.38;;;8.00;99.90;;;;;;5073555;28;20040;-66
2023/04/11 02:23:24;;;;;;;7.68;1.40;;;8.00;99.90;;;;;;5073745;28;20044;-65
2023/04/11 02:25:49;;;;;;;6.43;1.55;;;8.00;99.90;;;;;;5073397;28;20044;-66
2023/04/11 02:28:15;;;;;;;6.07;1.15;;;8.00;99.90;;;;;;5073528;28;20041;-66
2023/04/11 02:30:40;;;;;;;4.95;2.22;;;8.00;99.90;;;;;;5073517;28;20048;-66
2023/04/11 02:33:06;;;;;;;3.53;1.15;;;7.90;99.90;;;;;;5073333;28;20058;-66
2023/04/11 02:35:31;;;;;;;4.78;1.10;;;7.90;99.90;;;;;;5073278;28;20400;-66
2023/04/11 02:37:57;;;;;;;5.88;1.77;;;7.90;99.90;;;;;;5073477;28;20033;-66
2023/04/11 02:40:22;;;;;;;6.05;1.80;;;7.90;99.90;;;;;;5073346;28;20048;-66
2023/04/11 02:42:48;;;;;;;4.78;1.20;;;8.00;99.90;;;;;;5073311;28;20048;-65
2023/04/11 02:45:15;;;;;;;5.50;1.05;;;8.00;99.90;;;;;;5072761;28;20063;-65
2023/04/11 02:47:40;;;;;;;9.48;2.38;;;8.00;99.90;;;;;;5073097;28;20044;-66
2023/04/11 02:50:06;;;;;;;4.75;1.60;;;8.00;99.90;;;;;;5072884;28;20051;-66
2023/04/11 02:52:32;;;;;;;2.22;1.20;;;7.90;99.90;;;;;;5073145;28;20036;-66
2023/04/11 02:54:58;;;;;;;8.00;1.80;;;8.00;99.90;;;;;;5072844;28;20036;-66
2023/04/11 02:57:24;;;;;;;4.55;1.40;;;8.00;99.90;;;;;;5072852;28;20044;-65
2023/04/11 02:59:50;;;;;;;4.18;1.65;;;8.00;99.90;;;;;;5072936;28;20119;-66
2023/04/11 03:02:15;;;;;;;10.00;1.77;;;7.90;99.90;;;;;;5072791;28;20119;-65
2023/04/11 03:04:41;;;;;;;3.97;1.70;;;8.00;99.90;;;;;;5072736;28;20430;-65
2023/04/11 03:07:06;;;;;;;8.93;1.73;;;8.00;99.90;;;;;;5072623;28;20051;-66
2023/04/11 03:09:32;;;;;;;7.25;1.77;;;8.00;99.90;;;;;;5072671;28;20037;-66
2023/04/11 03:11:57;;;;;;;2.42;1.67;;;7.90;99.90;;;;;;5072717;28;20085;-65
2023/04/11 03:14:23;;;;;;;7.07;1.50;;;7.90;99.90;;;;;;5072454;28;20036;-65
2023/04/11 03:16:48;;;;;;;5.30;1.40;;;7.90;99.90;;;;;;5072377;28;20407;-65
2023/04/11 03:19:14;;;;;;;5.20;1.77;;;7.90;99.90;;;;;;5072370;28;20040;-65
2023/04/11 03:21:39;;;;;;;3.17;1.40;;;7.90;99.90;;;;;;5072649;28;20462;-65
2023/04/11 03:24:05;;;;;;;3.22;1.50;;;7.90;99.90;;;;;;5072336;28;20086;-65
2023/04/11 03:26:31;;;;;;;3.78;1.50;;;7.90;99.90;;;;;;5072274;28;20076;-65
2023/04/11 03:28:57;;;;;;;4.13;1.45;;;7.90;99.90;;;;;;5072322;28;20499;-65
2023/04/11 03:31:23;;;;;;;4.85;1.20;;;7.90;99.90;;;;;;5072265;28;20036;-65
2023/04/11 03:33:49;;;;;;;4.40;1.60;;;7.90;99.90;;;;;;5072063;28;20043;-65
2023/04/11 03:36:15;;;;;;;3.97;1.73;;;7.80;99.90;;;;;;5072070;28;20044;-65
2023/04/11 03:38:41;;;;;;;8.85;1.77;;;7.80;99.90;;;;;;5071824;28;20041;-65
2023/04/11 03:41:06;;;;;;;4.97;1.70;;;7.80;99.90;;;;;;5072197;28;20547;-65
2023/04/11 03:43:32;;;;;;;4.38;1.38;;;7.80;99.90;;;;;;5072112;28;20412;-65
2023/04/11 03:45:57;;;;;;;3.72;1.60;;;7.70;99.90;;;;;;5071400;28;20186;-65
2023/04/11 03:48:29;;;;;;;10.57;1.50;;;7.70;99.90;;;;;;5072066;28;20047;-66
2023/04/11 03:50:55;;;;;;;3.40;1.60;;;7.80;99.90;;;;;;5071902;28;20036;-66
2023/04/11 03:53:20;;;;;;;4.40;1.55;;;7.70;99.90;;;;;;5071882;28;20062;-65
2023/04/11 03:55:47;;;;;;;6.63;1.85;;;7.80;99.90;;;;;;5071644;28;20506;-66
2023/04/11 03:58:13;;;;;;;5.15;1.77;;;7.80;99.90;;;;;;5071915;28;20036;-66
2023/04/11 04:00:39;;;;;;;7.60;1.88;;;7.80;99.90;;;;;;5071774;28;20040;-65
2023/04/11 04:03:05;;;;;;;6.38;1.60;;;7.80;99.90;;;;;;5071829;28;20052;-65
2023/04/11 04:05:31;;;;;;;8.25;2.17;;;7.80;99.90;;;;;;5071351;28;20048;-65
2023/04/11 04:07:57;;;;;;;10.90;2.35;;;7.80;99.90;;;;;;5071847;28;20412;-65
2023/04/11 04:10:22;;;;;;;6.18;2.40;;;7.80;99.90;;;;;;5071659;28;20072;-65
2023/04/11 04:12:48;;;;;;;5.00;1.80;;;7.80;99.90;;;;;;5071782;28;20068;-66
2023/04/11 04:15:13;;;;;;;8.75;2.05;;;7.80;99.90;;;;;;5071304;28;20036;-65
2023/04/11 04:17:40;;;;;;;5.93;1.88;;;7.90;99.90;;;;;;5072033;28;20044;-65
2023/04/11 04:20:09;;;;;;;8.93;2.28;;;7.90;99.90;;;;;;5071812;28;20044;-66
2023/04/11 04:22:35;;;;;;;7.88;3.13;;;7.80;99.90;;;;;;5071966;28;20048;-66
2023/04/11 04:25:01;;;;;;;5.10;1.95;;;7.80;99.90;;;;;;5071747;28;20040;-66
2023/04/11 04:27:27;;;;;;;11.70;2.85;;;7.80;99.90;;;;;;5071558;28;20090;-65
2023/04/11 04:29:52;;;;;;;15.68;2.95;;;7.80;99.90;;;;;;5071440;28;20044;-66
2023/04/11 04:32:21;;;;;;;7.55;1.98;;;7.80;99.90;;;;;;5071703;28;20480;-65
2023/04/11 04:34:49;;;;;;;6.60;2.50;;;7.80;99.90;;;;;;5071160;28;20626;-65
2023/04/11 04:37:20;;;;;;;13.85;2.50;;;7.90;99.90;;;;;;5071529;28;20044;-65
2023/04/11 04:40:00;;;;;;;13.50;3.25;;;7.80;99.90;;;;;;5071489;28;20040;-65
2023/04/11 04:42:28;;;;;;;8.68;2.65;;;7.90;99.90;;;;;;5071492;28;20029;-65
2023/04/11 04:44:55;;;;;;;11.05;2.83;;;7.90;99.90;;;;;;5099839;22;20157;-68
2023/04/11 04:47:22;;;;;;;16.35;3.35;;;7.90;99.90;;;;;;5089789;28;20123;-68
2023/04/11 04:49:48;;;;;;;15.32;2.85;;;7.90;99.90;;;;;;5091550;28;20040;-68
2023/04/11 04:52:14;;;;;;;11.95;2.95;;;7.90;99.90;;;;;;5091467;28;20804;-68
2023/04/11 04:54:40;;;;;;;11.43;2.88;;;7.90;99.90;;;;;;5091051;28;20518;-68
2023/04/11 04:57:07;;;;;;;10.30;2.97;;;7.90;99.90;;;;;;5091299;28;20518;-68
2023/04/11 04:59:33;;;;;;;6.80;3.03;;;7.90;99.90;;;;;;5091637;28;20108;-68
2023/04/11 05:01:58;;;;;;;12.40;3.10;;;7.90;99.90;;;;;;5091480;28;20484;-68
2023/04/11 05:04:24;;;;;;;11.40;2.92;;;7.90;99.90;;;;;;5093394;28;20082;-68
2023/04/11 05:06:50;;;;;;;12.52;3.88;;;7.90;99.90;;;;;;5095117;28;20499;-68
2023/04/11 05:09:15;;;;;;;11.18;3.58;;;7.90;99.90;;;;;;5094045;28;20097;-68
2023/04/11 05:11:41;;;;;;;11.15;2.97;;;7.90;99.90;;;;;;5095175;28;20115;-68
2023/04/11 05:14:07;;;;;;;9.80;3.38;;;7.90;99.90;;;;;;5095275;28;20457;-68
2023/04/11 05:16:32;;;;;;;11.35;3.05;;;7.90;99.90;;;;;;5094538;28;20407;-68
2023/04/11 05:18:58;;;;;;;10.07;3.08;;;7.90;99.90;;;;;;5094978;28;20123;-68
2023/04/11 05:21:23;;;;;;;8.32;3.03;;;8.00;99.90;;;;;;5095075;28;20040;-68
2023/04/11 05:23:49;;;;;;;7.72;3.03;;;8.00;99.90;;;;;;5094958;28;20040;-68
2023/04/11 05:26:15;;;;;;;9.27;3.30;;;8.00;99.90;;;;;;5094776;28;20115;-68
2023/04/11 05:28:41;;;;;;;12.85;3.80;;;7.90;99.90;;;;;;5094984;28;20047;-68
2023/04/11 05:31:07;;;;;;;10.38;3.33;;;8.00;99.90;;;;;;5094972;28;20040;-68
2023/04/11 05:33:33;;;;;;;8.85;3.10;;;8.00;99.90;;;;;;5094867;28;20074;-68
2023/04/11 05:35:59;;;;;;;11.80;2.45;;;7.90;99.90;;;;;;5094549;28;20430;-68
2023/04/11 05:38:25;;;;;;;8.73;2.78;;;7.90;99.90;;;;;;5093316;28;20520;-68
2023/04/11 05:40:50;;;;;;;11.75;3.00;;;7.90;99.90;;;;;;5089608;28;20032;-68
2023/04/11 05:43:16;;;;;;;7.25;2.78;;;8.00;99.90;;;;;;5094571;28;20032;-68
2023/04/11 05:45:46;;;;;;;13.18;3.63;;;8.00;99.90;;;;;;5085344;28;20033;-68
2023/04/11 05:48:15;;;;;;;11.02;3.10;;;8.00;99.90;;;;;;5093912;28;20491;-68
2023/04/11 05:50:41;;;;;;;14.63;3.25;;;8.00;99.90;;;;;;5094058;28;21292;-68
2023/04/11 05:53:07;;;;;;;11.18;3.00;;;8.00;99.90;;;;;;5094309;28;20036;-69
2023/04/11 05:55:33;;;;;;;11.52;3.45;;;8.00;99.90;;;;;;5093631;28;20043;-72
2023/04/11 05:57:58;;;;;;;10.60;3.28;;;8.00;99.90;;;;;;5094392;28;20118;-72
2023/04/11 06:00:27;;;;;;;11.85;3.03;;;8.00;99.90;;;;;;5093210;28;20050;-72
2023/04/11 06:02:53;;;;;;;12.63;3.45;;;8.00;99.90;;;;;;5094362;28;20123;-73
2023/04/11 06:05:20;;;;;;;8.82;2.90;;;8.10;99.90;;;;;;5093928;28;20116;-72
2023/04/11 06:07:46;;;;;;;16.80;3.72;;;8.00;99.90;;;;;;5093035;28;20047;-73
2023/04/11 06:10:12;;;;;;;14.80;3.30;;;8.00;99.90;;;;;;5092713;28;20098;-73
2023/04/11 06:12:37;;;;;;;14.10;3.72;;;8.00;99.90;;;;;;5094198;28;20457;-73
2023/04/11 06:15:03;;;;;;;11.13;3.28;;;8.10;99.90;;;;;;5091985;28;20104;-72
2023/04/11 06:17:29;;;;;;;10.57;3.40;;;8.00;99.90;;;;;;5093868;28;20035;-72
2023/04/11 06:19:54;;;;;;;12.68;3.70;;;8.00;99.90;;;;;;5093883;28;20048;-73
2023/04/11 06:22:20;;;;;;;9.85;3.67;;;8.10;99.90;;;;;;5093769;28;20044;-73
2023/04/11 06:24:46;;;;;;;9.80;3.72;;;8.10;99.90;;;;;;5093812;28;20407;-73
2023/04/11 06:27:12;;;;;;;9.93;4.05;;;8.10;99.90;;;;;;5093584;28;20063;-72
2023/04/11 06:29:39;;;;;;;16.05;3.33;;;8.10;99.90;;;;;;5093423;28;20491;-73
2023/04/11 06:32:06;;;;;;;11.15;3.30;;;8.10;99.90;;;;;;5093779;28;20120;-73
2023/04/11 06:34:31;;;;;;;13.27;3.10;;;8.10;99.90;;;;;;5093466;28;20040;-73
2023/04/11 06:36:57;;;;;;;12.95;4.22;;;8.10;99.90;;;;;;5092170;28;20484;-73
2023/04/11 06:39:22;;;;;;;10.07;3.58;;;8.10;99.90;;;;;;5093695;28;20061;-73
2023/04/11 06:41:48;;;;;;;14.43;3.65;;;8.20;99.90;;;;;;5092159;28;20040;-73
2023/04/11 06:44:14;;;;;;;10.38;3.55;;;8.10;99.90;;;;;;5093290;28;20039;-72
2023/04/11 06:46:39;;;;;;;11.73;3.83;;;8.20;99.90;;;;;;5093337;28;20036;-73
2023/04/11 06:49:08;;;;;;;15.65;3.47;;;8.20;99.90;;;;;;5093327;28;20181;-73
2023/04/11 06:51:34;;;;;;;11.10;3.08;;;8.30;99.90;;;;;;5093249;28;20032;-73
2023/04/11 06:54:01;;;;;;;11.75;3.90;;;8.30;99.90;;;;;;5091954;28;20141;-73
2023/04/11 06:56:26;;;;;;;12.00;3.58;;;8.40;99.90;;;;;;5091722;28;20043;-73
2023/04/11 06:58:52;;;;;;;20.83;8.05;;;8.50;99.90;;;;;;5093227;28;20044;-72
2023/04/11 07:01:19;;;;;;;13.07;5.25;;;8.60;99.90;;;;;;5093187;28;20048;-73
2023/04/11 07:03:48;;;;;;;18.73;4.43;;;8.60;99.90;;;;;;5091898;28;20044;-73
2023/04/11 07:06:14;;;;;;;14.40;2.88;;;8.70;99.90;;;;;;5091353;28;20089;-73
2023/04/11 07:08:40;;;;;;;15.27;3.97;;;8.60;99.90;;;;;;5093090;28;20044;-73
2023/04/11 07:11:06;;;;;;;9.85;3.15;;;8.70;99.90;;;;;;5093118;28;20039;-74
2023/04/11 07:13:32;;;;;;;11.05;4.03;;;8.70;99.90;;;;;;5092809;28;20040;-73
2023/04/11 07:15:57;;;;;;;14.45;3.55;;;8.80;99.90;;;;;;5092581;28;20050;-73
2023/04/11 07:18:24;;;;;;;13.15;4.25;;;8.70;99.90;;;;;;5091741;28;20119;-73
2023/04/11 07:20:51;;;;;;;8.00;2.60;;;8.70;99.90;;;;;;5092678;28;20044;-73
2023/04/11 07:23:17;;;;;;;9.43;2.97;;;8.60;99.90;;;;;;5092874;28;20036;-73
2023/04/11 07:25:43;;;;;;;12.32;3.47;;;8.40;99.90;;;;;;5092059;28;20036;-73
2023/04/11 07:28:10;;;;;;;12.20;2.92;;;8.30;99.90;;;;;;5092230;28;20039;-73
2023/04/11 07:30:36;;;;;;;9.88;2.60;;;8.30;99.90;;;;;;5091241;28;20051;-73
2023/04/11 07:33:02;;;;;;;8.40;2.90;;;8.30;99.90;;;;;;5092513;28;20036;-73
2023/04/11 07:35:28;;;;;;;13.45;3.30;;;8.30;99.90;;;;;;5092130;28;20090;-73
2023/04/11 07:37:56;;;;;;;12.10;3.60;;;8.30;99.90;;;;;;5092681;28;20380;-73
2023/04/11 07:40:21;;;;;;;11.45;2.65;;;8.30;99.90;;;;;;5092538;28;20057;-74
2023/04/11 07:42:47;;;;;;;7.82;2.90;;;8.30;99.90;;;;;;5092366;28;20064;-74
2023/04/11 07:45:13;;;;;;;14.00;3.85;;;8.60;99.90;;;;;;5091850;28;20048;-74
2023/04/11 07:47:38;;;;;;;11.05;2.47;;;8.80;99.90;;;;;;5092086;28;20040;-73
2023/04/11 07:50:04;;;;;;;12.35;2.67;;;9.10;99.90;;;;;;5092018;28;20035;-73
2023/04/11 07:52:30;;;;;;;8.45;3.30;;;9.30;99.90;;;;;;5092132;28;20496;-73
2023/04/11 07:54:56;;;;;;;12.10;3.00;;;9.20;99.90;;;;;;5092090;28;20115;-73
2023/04/11 07:57:22;;;;;;;14.75;3.15;;;9.20;99.90;;;;;;5091946;28;20032;-73
2023/04/11 07:59:47;;;;;;;14.35;2.78;;;9.40;99.90;;;;;;5090780;28;20487;-74
2023/04/11 08:02:13;;;;;;;8.43;2.50;;;9.30;99.90;;;;;;5091948;28;20071;-74
2023/04/11 08:04:38;;;;;;;10.75;3.33;;;9.20;99.90;;;;;;5091732;28;20691;-74
2023/04/11 08:07:04;;;;;;;13.45;3.17;;;9.40;99.90;;;;;;5091906;28;20123;-74
2023/04/11 08:09:29;;;;;;;9.60;2.70;;;9.30;99.90;;;;;;5090533;28;20093;-74
2023/04/11 08:11:58;;;;;;;72.65;37.60;;;9.30;99.90;;;;;;5091909;28;20085;-72
2023/04/11 08:14:24;;;;;;;17.50;6.63;;;9.30;99.90;;;;;;5091551;28;20036;-73
2023/04/11 08:16:51;;;;;;;105.78;59.65;;;9.00;99.90;;;;;;5091624;28;20538;-74
2023/04/11 08:19:17;;;;;;;4.82;1.80;;;8.80;99.90;;;;;;5091870;28;20036;-75
2023/04/11 08:21:42;;;;;;;9.60;2.47;;;8.70;99.90;;;;;;5090875;28;20083;-76
2023/04/11 08:24:08;;;;;;;5.40;1.83;;;8.60;99.90;;;;;;5091682;28;20075;-77
2023/04/11 08:26:33;;;;;;;11.60;3.72;;;8.90;99.90;;;;;;5090374;28;20043;-78
2023/04/11 08:28:59;;;;;;;8.43;2.47;;;9.10;99.90;;;;;;5091043;28;20066;-79
2023/04/11 08:31:25;;;;;;;7.35;3.13;;;9.10;99.90;;;;;;5073857;28;20134;-78
2023/04/11 08:33:51;;;;;;;14.63;2.75;;;9.20;99.90;;;;;;5092607;28;20415;-74
2023/04/11 08:36:17;;;;;;;11.95;2.80;;;9.30;99.90;;;;;;5091644;28;20032;-78
2023/04/11 08:38:42;;;;;;;10.63;2.97;;;9.40;99.90;;;;;;5096629;28;20036;-76
2023/04/11 08:41:08;;;;;;;17.90;3.38;;;9.60;99.90;;;;;;5096758;28;20043;-77
2023/04/11 08:43:38;;;;;;;11.40;2.75;;;9.60;99.90;;;;;;5079063;28;20407;-77
2023/04/11 08:46:08;;;;;;;9.80;3.05;;;9.70;99.90;;;;;;5094910;28;20165;-77
2023/04/11 08:48:34;;;;;;;23.98;11.02;;;9.90;99.90;;;;;;5094197;28;20511;-76
2023/04/11 08:51:01;;;;;;;32.53;16.00;;;9.90;99.90;;;;;;5094354;28;20040;-75
2023/04/11 08:53:28;;;;;;;29.35;14.82;;;9.90;99.90;;;;;;5094246;28;20511;-75
2023/04/11 08:55:53;;;;;;;8.88;2.88;;;10.10;99.90;;;;;;5093859;28;20040;-76
2023/04/11 08:58:19;;;;;;;8.40;2.65;;;10.00;99.90;;;;;;5077442;28;20109;-75
2023/04/11 09:00:45;;;;;;;13.80;2.72;;;10.50;99.90;;;;;;5095088;28;20044;-78
2023/04/11 09:03:11;;;;;;;8.02;2.40;;;11.00;99.90;;;;;;5077158;28;20043;-77
2023/04/11 09:05:43;;;;;;;5.35;1.90;;;11.30;99.90;;;;;;5076922;28;20040;-77
2023/04/11 09:08:11;;;;;;;5.25;2.13;;;11.50;99.90;;;;;;5094238;28;20168;-76
2023/04/11 09:10:38;;;;;;;7.50;2.20;;;11.10;99.90;;;;;;5076826;28;20067;-76
2023/04/11 09:13:33;;;;;;;6.10;1.55;;;10.40;99.90;;;;;;5093904;28;20036;-77
2023/04/11 09:16:04;;;;;;;6.53;1.70;;;9.80;99.90;;;;;;5059653;28;20074;-77
2023/04/11 09:18:35;;;;;;;10.05;2.03;;;9.30;99.90;;;;;;5094219;28;20441;-75
2023/04/11 09:21:04;;;;;;;7.85;1.60;;;8.90;99.90;;;;;;5094172;28;20394;-77
2023/04/11 09:23:29;;;;;;;7.35;1.85;;;8.90;99.90;;;;;;5093891;28;20043;-76
2023/04/11 09:25:55;;;;;;;8.00;2.05;;;8.80;99.90;;;;;;5093251;28;20036;-76
2023/04/11 09:28:21;;;;;;;7.45;2.28;;;8.70;99.90;;;;;;5076772;28;20385;-76
2023/04/11 09:30:52;;;;;;;9.52;2.17;;;8.60;99.90;;;;;;5094863;28;20166;-75
2023/04/11 09:33:27;;;;;;;11.40;2.33;;;9.00;99.90;;;;;;5093609;28;20047;-76
2023/04/11 09:35:54;;;;;;;8.48;2.08;;;9.30;99.90;;;;;;5093435;28;20040;-76
2023/04/11 09:38:33;;;;;;;5.53;2.30;;;9.60;99.90;;;;;;5093461;28;20146;-78
2023/04/11 09:41:01;;;;;;;8.90;2.42;;;9.60;99.90;;;;;;5076586;28;20032;-76
2023/04/11 09:43:27;;;;;;;11.88;2.60;;;9.80;99.90;;;;;;5093858;28;20040;-76
2023/04/11 09:46:09;;;;;;;14.73;2.95;;;10.10;99.90;;;;;;5093869;28;20715;-75
2023/04/11 09:48:37;;;;;;;7.77;2.13;;;10.30;99.90;;;;;;5093427;28;20563;-76
2023/04/11 09:51:06;;;;;;;8.68;1.88;;;10.40;99.90;;;;;;5092937;28;20036;-76
2023/04/11 09:53:36;;;;;;;7.40;1.92;;;10.20;99.90;;;;;;5093303;28;20036;-76
2023/04/11 09:56:02;;;;;;;11.02;2.17;;;9.90;99.90;;;;;;5075981;28;20058;-75
2023/04/11 09:58:33;;;;;;;22.33;9.75;;;9.70;99.90;;;;;;5093273;28;20037;-75
2023/04/11 10:01:00;;;;;;;15.30;5.57;;;9.70;99.90;;;;;;5076102;28;20115;-75
2023/04/11 10:03:26;;;;;;;9.68;1.88;;;9.80;99.90;;;;;;5072147;28;20044;-75
2023/04/11 10:05:53;;;;;;;11.80;2.60;;;10.10;99.90;;;;;;5087257;28;20042;-76
2023/04/11 10:08:31;;;;;;;13.27;3.13;;;10.20;99.90;;;;;;5092922;28;20102;-75
2023/04/11 10:11:02;;;;;;;10.95;2.03;;;10.40;99.90;;;;;;5088195;28;20032;-75
2023/04/11 10:13:33;;;;;;;7.63;1.92;;;10.30;99.90;;;;;;5089728;28;20073;-75
2023/04/11 10:16:12;;;;;;;8.88;2.88;;;10.00;99.90;;;;;;5092436;28;20123;-75
2023/04/11 10:18:57;;;;;;;5.88;1.67;;;9.60;99.90;;;;;;5093209;28;20032;-75
2023/04/11 10:21:29;;;;;;;4.60;1.42;;;9.30;99.90;;;;;;5092587;28;20434;-75
2023/04/11 10:24:17;;;;;;;4.53;1.70;;;9.20;99.90;;;;;;5092744;28;20117;-75
2023/04/11 10:26:54;;;;;;;6.10;1.60;;;9.00;99.90;;;;;;5092421;28;20484;-75
2023/04/11 10:29:32;;;;;;;4.80;1.10;;;8.90;99.90;;;;;;5092503;28;20040;-75
2023/04/11 10:32:18;;;;;;;5.75;1.20;;;8.50;99.90;;;;;;5092461;28;20044;-75
2023/04/11 10:34:53;;;;;;;6.65;1.40;;;8.30;99.90;;;;;;5075361;28;20039;-75
2023/04/11 10:37:32;;;;;;;7.95;2.22;;;8.10;99.90;;;;;;5092164;28;20092;-75
2023/04/11 10:40:01;;;;;;;6.90;2.22;;;8.00;99.90;;;;;;5092102;28;20072;-76
2023/04/11 10:42:27;;;;;;;6.72;1.95;;;7.90;99.90;;;;;;5092215;28;20097;-75
2023/04/11 10:45:18;;;;;;;6.18;1.60;;;7.80;99.90;;;;;;5098902;22;20044;-71
2023/04/11 10:48:06;;;;;;;4.95;1.70;;;7.70;99.90;;;;;;5112524;28;20082;-71
2023/04/11 10:50:39;;;;;;;3.10;0.82;;;7.50;99.90;;;;;;5095574;28;20489;-68
2023/04/11 10:53:06;;;;;;;4.72;1.52;;;7.30;99.90;;;;;;5113541;28;20473;-67
2023/04/11 10:55:49;;;;;;;1.92;0.73;;;7.20;99.90;;;;;;5112935;28;20067;-69
2023/04/11 10:58:18;;;;;;;169.57;104.55;;;7.10;99.90;;;;;;5113213;28;20491;-68
2023/04/11 11:00:50;;;;;;;14.90;5.90;;;7.10;99.90;;;;;;5094489;28;20494;-66
2023/04/11 11:03:29;;;;;;;5.45;2.10;;;7.10;99.90;;;;;;5113077;28;20100;-67
2023/04/11 11:06:01;;;;;;;6.60;1.25;;;7.10;99.90;;;;;;5113121;28;20507;-67
2023/04/11 11:08:37;;;;;;;5.28;1.50;;;7.10;99.90;;;;;;5113438;28;20491;-68
2023/04/11 11:11:07;;;;;;;5.63;2.10;;;7.20;99.90;;;;;;5113497;28;20051;-69
2023/04/11 11:13:43;;;;;;;7.75;1.98;;;7.30;99.90;;;;;;5113261;28;20035;-70
2023/04/11 11:16:16;;;;;;;6.57;1.77;;;7.40;99.90;;;;;;5112751;28;20039;-69
2023/04/11 11:18:49;;;;;;;6.78;1.85;;;7.40;99.90;;;;;;5113352;27;20061;-70
2023/04/11 11:21:18;;;;;;;;;;;7.40;99.90;;;;;;5113720;28;20043;-68
2023/04/11 11:23:57;;;;;;;4.50;1.60;;;7.40;99.90;;;;;;5113199;28;19923;-68
2023/04/11 11:26:40;;;;;;;4.25;1.02;;;7.40;99.90;;;;;;5112592;28;20131;-68
2023/04/11 11:29:06;;;;;;;6.88;1.30;;;7.40;99.90;;;;;;5112997;28;20050;-67
2023/04/11 11:31:44;;;;;;;2.97;1.00;;;7.40;99.90;;;;;;5103909;28;20050;-68
2023/04/11 11:34:10;;;;;;;7.30;1.23;;;7.40;99.90;;;;;;5112871;28;20152;-70
2023/04/11 11:36:44;;;;;;;7.60;1.98;;;7.40;99.90;;;;;;5112635;27;20039;-72
2023/04/11 11:39:10;;;;;;;4.13;0.90;;;7.30;99.90;;;;;;5112765;28;20471;-68
2023/04/11 11:41:37;;;;;;;6.03;1.48;;;7.40;99.90;;;;;;5113025;28;20089;-67
2023/04/11 11:44:03;;;;;;;6.85;1.98;;;7.40;99.90;;;;;;5112692;28;20040;-67
2023/04/11 11:46:32;;;;;;;4.88;1.63;;;7.50;99.90;;;;;;5112448;28;20044;-68
2023/04/11 11:49:02;;;;;;;6.78;1.88;;;7.70;99.90;;;;;;5112577;28;20043;-69
2023/04/11 11:51:41;;;;;;;5.40;1.75;;;7.90;99.90;;;;;;5111236;28;20119;-67
2023/04/11 11:54:08;;;;;;;5.10;1.80;;;8.20;99.90;;;;;;5112525;28;20063;-68
2023/04/11 11:56:38;;;;;;;3.83;1.23;;;8.20;99.90;;;;;;5112382;28;20047;-67
2023/04/11 11:59:05;;;;;;;6.82;1.63;;;8.10;99.90;;;;;;5111177;28;20122;-70
2023/04/11 12:01:32;;;;;;;7.45;1.23;;;8.00;99.90;;;;;;5111093;28;20054;-67
2023/04/11 12:03:58;;;;;;;17.95;8.60;;;7.90;99.90;;;;;;5112135;28;20403;-70
2023/04/11 12:06:28;;;;;;;9.85;4.22;;;8.00;99.90;;;;;;5110877;28;20051;-67
2023/04/11 12:09:01;;;;;;;5.30;1.65;;;8.00;99.90;;;;;;5111045;28;20143;-68
2023/04/11 12:11:26;;;;;;;5.72;1.95;;;8.00;99.90;;;;;;5112433;28;20043;-69
2023/04/11 12:13:52;;;;;;;17.48;2.95;;;8.10;99.90;;;;;;5110667;28;20498;-69
2023/04/11 12:16:21;;;;;;;11.73;2.33;;;8.30;99.90;;;;;;5111891;28;20105;-68
2023/04/11 12:18:46;;;;;;;7.40;2.33;;;8.40;99.90;;;;;;5112016;28;20040;-68
2023/04/11 12:21:12;;;;;;;7.05;2.20;;;8.50;99.90;;;;;;5112291;28;20036;-69
2023/04/11 12:23:37;;;;;;;260.75;148.20;;;8.70;99.90;;;;;;5093840;28;20410;-70
2023/04/11 12:26:03;;;;;;;37.75;15.77;;;9.00;99.90;;;;;;5110764;28;20124;-69
2023/04/11 12:28:28;;;;;;;20.88;7.75;;;9.30;99.90;;;;;;5110853;28;20557;-69
2023/04/11 12:30:54;;;;;;;16.58;4.22;;;9.50;99.90;;;;;;5112005;28;20081;-70
2023/04/11 12:33:19;;;;;;;10.10;2.70;;;9.60;99.90;;;;;;5110897;28;20119;-70
2023/04/11 12:35:45;;;;;;;14.10;3.35;;;9.60;99.90;;;;;;5111621;28;20040;-69
2023/04/11 12:38:11;;;;;;;11.98;2.42;;;9.70;99.90;;;;;;5112148;28;20067;-69
2023/04/11 12:40:36;;;;;;;12.50;2.83;;;9.80;99.90;;;;;;5110771;28;20067;-69
2023/04/11 12:43:02;;;;;;;12.38;2.20;;;9.90;99.90;;;;;;5111974;28;20047;-69
2023/04/11 12:45:27;;;;;;;14.63;2.08;;;9.90;99.90;;;;;;5111486;28;20044;-69
2023/04/11 12:47:53;;;;;;;12.98;3.15;;;10.00;99.90;;;;;;5111812;28;20123;-69
2023/04/11 12:50:19;;;;;;;10.38;2.13;;;10.00;99.90;;;;;;5111974;28;20073;-69
2023/04/11 12:52:47;;;;;;;11.48;2.20;;;10.20;99.90;;;;;;5110591;28;20075;-68
2023/04/11 12:55:12;;;;;;;8.00;1.83;;;10.10;99.90;;;;;;5111540;28;20044;-68